Time;durP1;ratioP1;P1;durP2;ratioP2;P2;SDS_P1;SDS_P2;PMS_P1;PMS_P2;Temp;Humidity;BMP_temperature;BMP_pressure;BME280_temperature;BME280_humidity;BME280_pressure;Samples;Min_cycle;Max_cycle;Signal;HPM_P1;HPM_P2
2021/03/21 00:00:22;;;;;;;;;;;14.50;67.40;;;;;;4918525;29;19907;-63
2021/03/21 00:02:47;;;;;;;;;;;14.70;67.40;;;;;;4918463;29;19907;-63
2021/03/21 00:05:12;;;;;;;;;;;14.60;67.40;;;;;;4901338;29;19918;-63
2021/03/21 00:07:38;;;;;;;;;;;14.60;67.40;;;;;;4918581;29;19911;-63
2021/03/21 00:10:04;;;;;;;;;;;14.80;67.50;;;;;;4918537;29;20374;-63
2021/03/21 00:12:30;;;;;;;;;;;14.60;67.40;;;;;;4918063;29;19914;-63
2021/03/21 00:14:55;;;;;;;;;;;14.60;67.40;;;;;;4918144;29;20358;-63
2021/03/21 00:17:21;;;;;;;;;;;14.40;67.30;;;;;;4918176;29;19914;-62
2021/03/21 00:19:46;;;;;;;;;;;14.60;67.50;;;;;;4918172;29;19911;-62
2021/03/21 00:22:12;;;;;;;;;;;15.10;67.60;;;;;;4918400;29;20005;-63
2021/03/21 00:24:37;;;;;;;;;;;14.60;67.30;;;;;;4918301;29;19935;-63
2021/03/21 00:27:03;;;;;;;;;;;14.50;67.20;;;;;;4918175;29;19919;-62
2021/03/21 00:29:29;;;;;;;;;;;14.50;67.20;;;;;;4918267;29;19994;-62
2021/03/21 00:31:54;;;;;;;;;;;14.50;67.20;;;;;;4918132;29;19910;-63
2021/03/21 00:34:20;;;;;;;;;;;14.50;67.30;;;;;;4917904;29;19914;-63
2021/03/21 00:36:45;;;;;;;;;;;14.50;67.20;;;;;;4917819;29;19914;-63
2021/03/21 00:39:11;;;;;;;;;;;14.40;67.20;;;;;;4917768;29;19955;-63
2021/03/21 00:41:36;;;;;;;;;;;14.60;67.20;;;;;;4917763;29;19966;-63
2021/03/21 00:44:02;;;;;;;;;;;14.50;67.20;;;;;;4917968;29;19958;-62
2021/03/21 00:46:28;;;;;;;;;;;14.50;67.20;;;;;;4917911;29;19919;-64
2021/03/21 00:48:53;;;;;;;;;;;14.70;67.30;;;;;;4917766;29;19915;-62
2021/03/21 00:51:19;;;;;;;;;;;14.50;67.10;;;;;;4917603;29;19907;-63
2021/03/21 00:53:45;;;;;;;;;;;14.50;67.10;;;;;;4917594;29;19907;-63
2021/03/21 00:56:24;;;;;;;;;;;14.50;67.10;;;;;;4917124;29;19907;-63
2021/03/21 00:58:50;;;;;;;;;;;14.50;67.10;;;;;;4917490;29;19914;-63
2021/03/21 01:01:15;;;;;;;;;;;14.40;67.00;;;;;;4917708;29;19907;-63
2021/03/21 01:03:41;;;;;;;;;;;14.40;67.00;;;;;;4917630;29;20531;-63
2021/03/21 01:06:07;;;;;;;;;;;14.30;66.90;;;;;;4917157;29;19922;-63
2021/03/21 01:08:36;;;;;;;;;;;14.50;67.00;;;;;;4917565;29;19907;-63
2021/03/21 01:11:04;;;;;;;;;;;14.40;66.90;;;;;;4917242;29;19918;-63
2021/03/21 01:13:30;;;;;;;;;;;14.40;67.60;;;;;;4917449;29;19907;-63
2021/03/21 01:15:56;;;;;;;;;;;14.20;66.70;;;;;;4917451;29;19907;-63
2021/03/21 01:18:28;;;;;;;;;;;14.40;66.80;;;;;;4917453;29;20329;-62
2021/03/21 01:20:54;;;;;;;;;;;14.20;66.70;;;;;;4917503;29;19917;-62
2021/03/21 01:23:20;;;;;;;;;;;14.40;66.80;;;;;;4917167;29;19998;-63
2021/03/21 01:25:45;;;;;;;;;;;14.30;66.70;;;;;;4917282;29;20384;-62
2021/03/21 01:28:22;;;;;;;;;;;14.20;66.70;;;;;;4916957;29;19965;-63
2021/03/21 01:30:47;;;;;;;;;;;14.30;66.60;;;;;;4916917;29;19911;-63
2021/03/21 01:33:13;;;;;;;;;;;14.30;66.60;;;;;;4917177;29;19966;-64
2021/03/21 01:35:38;;;;;;;;;;;15.00;67.00;;;;;;4916745;29;20034;-63
2021/03/21 01:38:04;;;;;;;;;;;14.40;66.60;;;;;;4916763;29;19953;-63
2021/03/21 01:40:29;;;;;;;;;;;14.10;66.40;;;;;;4916794;29;19907;-63
2021/03/21 01:42:55;;;;;;;;;;;14.30;66.60;;;;;;4916601;29;19933;-63
2021/03/21 01:45:29;;;;;;;;;;;14.20;66.40;;;;;;4916781;29;19907;-63
2021/03/21 01:47:55;;;;;;;;;;;14.30;66.30;;;;;;4916905;29;19922;-62
2021/03/21 01:50:33;;;;;;;;;;;14.30;66.40;;;;;;4916833;29;19935;-62
2021/03/21 01:53:00;;;;;;;;;;;14.30;66.30;;;;;;4916919;29;19907;-63
2021/03/21 01:55:26;;;;;;;;;;;14.10;66.30;;;;;;4916795;29;19938;-61
2021/03/21 01:57:51;;;;;;;;;;;14.30;66.30;;;;;;4916701;29;19972;-62
2021/03/21 02:00:18;;;;;;;;;;;14.20;66.30;;;;;;4916799;29;19958;-63
2021/03/21 02:02:43;;;;;;;;;;;14.20;66.40;;;;;;4916476;29;19951;-63
2021/03/21 02:05:09;;;;;;;;;;;14.20;66.20;;;;;;4916705;29;19942;-63
2021/03/21 02:07:56;;;;;;;;;;;14.20;66.30;;;;;;4915570;29;19915;-63
2021/03/21 02:10:34;;;;;;;;;;;14.20;66.10;;;;;;4916238;29;20311;-63
2021/03/21 02:13:20;;;;;;;;;;;14.20;66.10;;;;;;4916562;29;19907;-62
2021/03/21 02:16:05;;;;;;;;;;;14.20;66.10;;;;;;4916209;29;19907;-62
2021/03/21 02:18:39;;;;;;;;;;;14.20;66.10;;;;;;4916447;29;20263;-62
2021/03/21 02:21:14;;;;;;;;;;;14.20;66.00;;;;;;4916455;29;20002;-62
2021/03/21 02:23:51;;;;;;;;;;;14.20;65.90;;;;;;4916174;29;19911;-62
2021/03/21 02:26:22;;;;;;;;;;;14.20;66.00;;;;;;4916314;29;19922;-63
2021/03/21 02:29:06;;;;;;;;;;;14.20;66.00;;;;;;4916366;29;19907;-63
2021/03/21 02:31:52;;;;;;;;;;;14.20;65.90;;;;;;4916057;29;19962;-62
2021/03/21 02:34:32;;;;;;;;;;;14.20;65.90;;;;;;4916145;29;19907;-62
2021/03/21 02:37:08;;;;;;;;;;;14.20;65.90;;;;;;4916134;29;20105;-62
2021/03/21 02:39:37;;;;;;;;;;;14.20;65.90;;;;;;4916150;29;19911;-63
2021/03/21 02:42:06;;;;;;;;;;;14.10;65.90;;;;;;4899100;29;19930;-63
2021/03/21 02:44:34;;;;;;;;;;;14.00;65.80;;;;;;4915986;29;20433;-63
2021/03/21 02:47:02;;;;;;;;;;;14.00;65.80;;;;;;4899384;29;19922;-63
2021/03/21 02:49:34;;;;;;;;;;;14.00;65.80;;;;;;4916090;29;19918;-63
2021/03/21 02:52:02;;;;;;;;;;;14.10;65.70;;;;;;4916042;29;20270;-63
2021/03/21 02:54:38;;;;;;;;;;;14.30;65.90;;;;;;4916015;29;20437;-62
2021/03/21 02:57:24;;;;;;;;;;;14.10;65.70;;;;;;4915828;29;19907;-63
2021/03/21 02:59:52;;;;;;;;;;;14.10;65.60;;;;;;4898906;29;19907;-62
2021/03/21 03:02:20;;;;;;;;;;;14.10;65.70;;;;;;4915821;29;20461;-63
2021/03/21 03:04:48;;;;;;;;;;;14.00;65.70;;;;;;4916103;29;19915;-63
2021/03/21 03:07:19;;;;;;;;;;;14.10;65.60;;;;;;4915977;29;19943;-63
2021/03/21 03:09:47;;;;;;;;;;;14.10;65.60;;;;;;4916100;29;19907;-62
2021/03/21 03:12:26;;;;;;;;;;;13.90;65.50;;;;;;4915738;29;19911;-62
2021/03/21 03:14:51;;;;;;;;;;;14.10;65.60;;;;;;4915996;29;19907;-63
2021/03/21 03:17:26;;;;;;;;;;;14.00;65.60;;;;;;4915762;29;19911;-63
2021/03/21 03:20:11;;;;;;;;;;;14.10;65.60;;;;;;4919340;29;19938;-62
2021/03/21 03:22:42;;;;;;;;;;;14.00;65.50;;;;;;4919496;29;19926;-63
2021/03/21 03:25:10;;;;;;;;;;;14.10;65.50;;;;;;4919514;29;20035;-63
2021/03/21 03:27:44;;;;;;;;;;;14.00;66.00;;;;;;4919302;29;19915;-63
2021/03/21 03:30:12;;;;;;;;;;;14.00;65.50;;;;;;4919093;29;19907;-63
2021/03/21 03:32:37;;;;;;;;;;;14.00;65.50;;;;;;4919069;29;19911;-62
2021/03/21 03:35:04;;;;;;;;;;;14.00;65.40;;;;;;4918965;29;19994;-63
2021/03/21 03:37:30;;;;;;;;;;;14.00;65.40;;;;;;4918862;29;19907;-62
2021/03/21 03:39:55;;;;;;;;;;;14.00;65.40;;;;;;4918973;29;19907;-63
2021/03/21 03:42:29;;;;;;;;;;;14.00;65.40;;;;;;4918892;29;19913;-62
2021/03/21 03:45:01;;;;;;;;;;;14.00;65.40;;;;;;4918725;29;20414;-63
2021/03/21 03:47:39;;;;;;;;;;;14.00;65.30;;;;;;4918707;29;20508;-62
2021/03/21 03:50:07;;;;;;;;;;;14.00;65.20;;;;;;4919005;29;20265;-63
2021/03/21 03:52:41;;;;;;;;;;;14.00;65.20;;;;;;4918775;29;19907;-63
2021/03/21 03:55:06;;;;;;;;;;;13.90;65.20;;;;;;4918715;29;20009;-62
2021/03/21 03:57:43;;;;;;;;;;;13.90;65.30;;;;;;4918647;29;20333;-62
2021/03/21 04:00:11;;;;;;;;;;;13.90;65.10;;;;;;4918795;29;20315;-62
2021/03/21 04:02:41;;;;;;;;;;;14.00;65.20;;;;;;4918520;29;19914;-63
2021/03/21 04:05:10;;;;;;;;;;;13.90;65.80;;;;;;4918463;29;19911;-62
2021/03/21 04:07:43;;;;;;;;;;;14.00;65.20;;;;;;4918321;29;19923;-63
2021/03/21 04:10:15;;;;;;;;;;;13.90;65.00;;;;;;4918411;29;19914;-63
2021/03/21 04:12:42;;;;;;;;;;;13.90;65.00;;;;;;4918334;29;19982;-63
2021/03/21 04:15:11;;;;;;;;;;;13.90;65.00;;;;;;4918309;29;20255;-63
2021/03/21 04:17:39;;;;;;;;;;;13.90;65.00;;;;;;4918210;29;19914;-63
2021/03/21 04:20:09;;;;;;;;;;;13.90;64.80;;;;;;4918218;29;19907;-63
2021/03/21 04:22:43;;;;;;;;;;;13.90;64.90;;;;;;4918375;29;19919;-63
2021/03/21 04:25:19;;;;;;;;;;;13.90;64.90;;;;;;4918081;29;19918;-63
2021/03/21 04:28:11;;;;;;;;;;;13.90;64.80;;;;;;4918112;29;19943;-63
2021/03/21 04:30:39;;;;;;;;;;;13.90;64.70;;;;;;4913424;29;19907;-63
2021/03/21 04:33:09;;;;;;;;;;;13.80;64.70;;;;;;4917967;29;20318;-64
2021/03/21 04:35:39;;;;;;;;;;;13.90;64.70;;;;;;4918123;29;20255;-63
2021/03/21 04:38:10;;;;;;;;;;;13.90;65.30;;;;;;4917983;29;19914;-63
2021/03/21 04:40:36;;;;;;;;;;;13.90;64.60;;;;;;4917811;29;20354;-63
2021/03/21 04:43:07;;;;;;;;;;;13.90;64.70;;;;;;4917807;29;20223;-63
2021/03/21 04:45:42;;;;;;;;;;;13.90;64.60;;;;;;4917761;29;19918;-62
2021/03/21 04:48:10;;;;;;;;;;;13.90;64.60;;;;;;4917660;29;19926;-63
2021/03/21 04:50:36;;;;;;;;;;;13.90;64.70;;;;;;4917777;29;19907;-63
2021/03/21 04:53:15;;;;;;;;;;;13.80;64.60;;;;;;4900730;29;20639;-62
2021/03/21 04:55:44;;;;;;;;;;;13.90;64.50;;;;;;4917933;29;19918;-63
2021/03/21 04:58:22;;;;;;;;;;;13.80;64.60;;;;;;4917717;29;19915;-62
2021/03/21 05:00:48;;;;;;;;;;;13.80;64.50;;;;;;4917637;29;19911;-62
2021/03/21 05:03:22;;;;;;;;;;;13.80;64.50;;;;;;4917826;29;19918;-63
2021/03/21 05:05:55;;;;;;;;;;;13.80;64.40;;;;;;4917359;29;19918;-63
2021/03/21 05:08:30;;;;;;;;;;;13.80;64.50;;;;;;4917718;29;20002;-63
2021/03/21 05:10:57;;;;;;;;;;;13.80;64.50;;;;;;4917349;29;19942;-63
2021/03/21 05:13:40;;;;;;;;;;;13.80;64.50;;;;;;4917359;29;20255;-63
2021/03/21 05:16:12;;;;;;;;;;;14.40;64.60;;;;;;4917639;29;20051;-62
2021/03/21 05:18:50;;;;;;;;;;;13.80;64.40;;;;;;4917705;29;19934;-63
2021/03/21 05:21:43;;;;;;;;;;;13.80;64.30;;;;;;4917918;29;19918;-63
2021/03/21 05:24:16;;;;;;;;;;;13.80;64.30;;;;;;4917652;29;19947;-62
2021/03/21 05:26:44;;;;;;;;;;;13.80;64.30;;;;;;4917123;29;20327;-63
2021/03/21 05:29:28;;;;;;;;;;;13.70;64.30;;;;;;4917263;29;19914;-61
2021/03/21 05:31:54;;;;;;;;;;;13.80;64.20;;;;;;4917289;29;19967;-63
2021/03/21 05:34:20;;;;;;;;;;;13.60;64.20;;;;;;4917053;29;19907;-62
2021/03/21 05:37:04;;;;;;;;;;;13.70;64.20;;;;;;4916840;29;20381;-62
2021/03/21 05:39:33;;;;;;;;;;;13.70;64.20;;;;;;4916972;29;19907;-63
2021/03/21 05:42:17;;;;;;;;;;;13.70;64.10;;;;;;4915910;29;19914;-62
2021/03/21 05:44:50;;;;;;;;;;;13.70;63.70;;;;;;4916741;29;19911;-63
2021/03/21 05:47:18;;;;;;;;;;;13.70;64.20;;;;;;4916612;29;19915;-63
2021/03/21 05:50:02;;;;;;;;;;;13.70;64.10;;;;;;4916641;29;19959;-63
2021/03/21 05:52:47;;;;;;;;;;;13.70;64.10;;;;;;4916627;29;19910;-63
2021/03/21 05:55:31;;;;;;;;;;;13.70;64.10;;;;;;4916640;29;19907;-63
2021/03/21 05:58:14;;;;;;;;;;;13.70;64.10;;;;;;4916531;29;19961;-63
2021/03/21 06:00:59;;;;;;;;;;;13.70;64.10;;;;;;4916603;29;19993;-62
2021/03/21 06:03:42;;;;;;;;;;;13.70;64.00;;;;;;4916518;29;19907;-63
2021/03/21 06:06:27;;;;;;;;;;;13.70;64.10;;;;;;4899298;29;19918;-63
2021/03/21 06:08:55;;;;;;;;;;;13.70;64.00;;;;;;4916426;29;19946;-63
2021/03/21 06:11:39;;;;;;;;;;;13.70;64.00;;;;;;4916403;29;19907;-63
2021/03/21 06:14:23;;;;;;;;;;;13.70;64.00;;;;;;4899260;29;19907;-62
2021/03/21 06:17:07;;;;;;;;;;;13.70;64.00;;;;;;4916309;29;19907;-63
2021/03/21 06:19:51;;;;;;;;;;;13.80;65.30;;;;;;4916277;29;19918;-63
2021/03/21 06:22:23;;;;;;;;;;;13.80;65.50;;;;;;4916606;29;19941;-63
2021/03/21 06:24:59;;;;;;;;;;;14.80;65.20;;;;;;4916181;29;19911;-63
2021/03/21 06:27:25;;;;;;;;;;;13.90;65.00;;;;;;4916475;29;19922;-63
2021/03/21 06:29:53;;;;;;;;;;;14.00;65.10;;;;;;4916234;29;19911;-63
2021/03/21 06:32:26;;;;;;;;;;;14.10;64.80;;;;;;4916069;29;19907;-63
2021/03/21 06:35:10;;;;;;;;;;;14.10;64.80;;;;;;4916137;29;19908;-62
2021/03/21 06:37:58;;;;;;;;;;;14.20;65.00;;;;;;4916007;29;20001;-63
2021/03/21 06:40:44;;;;;;;;;;;14.20;65.10;;;;;;4916136;29;19938;-62
2021/03/21 06:43:20;;;;;;;;;;;14.00;65.70;;;;;;4902454;29;19907;-63
2021/03/21 06:46:01;;;;;;;;;;;14.30;65.10;;;;;;4915841;29;19958;-62
2021/03/21 06:48:38;;;;;;;;;;;14.40;64.90;;;;;;4915817;29;19911;-62
2021/03/21 06:51:06;;;;;;;;;;;14.50;64.90;;;;;;4916194;29;19918;-62
2021/03/21 06:53:50;;;;;;;;;;;14.50;64.70;;;;;;4917697;29;19907;-63
2021/03/21 06:56:16;;;;;;;;;;;14.60;64.60;;;;;;4919660;29;19914;-63
2021/03/21 06:59:00;;;;;;;;;;;14.60;65.20;;;;;;4919632;29;19907;-63
2021/03/21 07:01:46;;;;;;;;;;;14.70;64.50;;;;;;4919533;29;19907;-61
2021/03/21 07:04:17;;;;;;;;;;;14.70;64.40;;;;;;4919630;29;20385;-62
2021/03/21 07:07:09;;;;;;;;;;;14.70;64.20;;;;;;4919712;29;20091;-62
2021/03/21 07:09:53;;;;;;;;;;;14.70;64.10;;;;;;4890204;29;19908;-62
2021/03/21 07:12:34;;;;;;;;;;;14.80;64.00;;;;;;4919415;29;19907;-62
2021/03/21 07:15:19;;;;;;;;;;;14.80;64.40;;;;;;4919488;29;19923;-62
2021/03/21 07:17:58;;;;;;;;;;;14.80;64.40;;;;;;4919621;29;19907;-62
2021/03/21 07:20:29;;;;;;;;;;;14.80;64.30;;;;;;4917596;29;19915;-63
2021/03/21 07:22:54;;;;;;;;;;;14.90;64.00;;;;;;4918151;29;19919;-62
2021/03/21 07:25:38;;;;;;;;;;;14.90;64.00;;;;;;4918177;29;20282;-62
2021/03/21 07:28:09;;;;;;;;;;;14.90;63.80;;;;;;4919174;29;20066;-62
2021/03/21 07:30:53;;;;;;;;;;;15.00;63.60;;;;;;4919322;29;19907;-62
2021/03/21 07:33:18;;;;;;;;;;;15.00;63.40;;;;;;4919079;29;19911;-62
2021/03/21 07:35:55;;;;;;;;;;;14.90;63.30;;;;;;4918941;29;19907;-63
2021/03/21 07:38:39;;;;;;;;;;;14.90;63.10;;;;;;4919161;29;19932;-62
2021/03/21 07:41:16;;;;;;;;;;;14.90;62.80;;;;;;4918958;29;19914;-62
2021/03/21 07:43:55;;;;;;;;;;;14.90;62.70;;;;;;4919024;29;19997;-64
2021/03/21 07:46:33;;;;;;;;;;;14.90;62.60;;;;;;4918786;29;19918;-63
2021/03/21 07:49:19;;;;;;;;;;;14.80;62.60;;;;;;4919004;29;19911;-63
2021/03/21 07:52:11;;;;;;;;;;;14.80;62.70;;;;;;4919009;29;19957;-62
2021/03/21 07:54:55;;;;;;;;;;;14.80;62.70;;;;;;4914714;29;19911;-61
2021/03/21 07:57:24;;;;;;;;;;;14.70;62.60;;;;;;4918670;29;19938;-62
2021/03/21 07:59:50;;;;;;;;;;;14.70;62.30;;;;;;4918532;29;19907;-62
2021/03/21 08:02:21;;;;;;;;;;;14.70;62.70;;;;;;4918513;29;20406;-62
2021/03/21 08:04:47;;;;;;;;;;;14.60;62.20;;;;;;4917452;29;19955;-62
2021/03/21 08:07:14;;;;;;;;;;;14.60;62.50;;;;;;4918657;29;20335;-62
2021/03/21 08:09:40;;;;;;;;;;;14.50;62.40;;;;;;4918390;29;19907;-61
2021/03/21 08:12:17;;;;;;;;;;;14.60;62.40;;;;;;4918375;29;19915;-62
2021/03/21 08:14:46;;;;;;;;;;;14.50;62.10;;;;;;4918338;29;19911;-62
2021/03/21 08:17:22;;;;;;;;;;;14.50;62.20;;;;;;4901327;29;19914;-62
2021/03/21 08:19:51;;;;;;;;;;;14.50;61.90;;;;;;4918476;29;19911;-63
2021/03/21 08:22:18;;;;;;;;;;;14.40;61.80;;;;;;4918576;29;19954;-62
2021/03/21 08:24:44;;;;;;;;;;;14.20;61.70;;;;;;4918163;29;20362;-62
2021/03/21 08:27:19;;;;;;;;;;;14.40;61.80;;;;;;4918249;29;19915;-63
2021/03/21 08:29:54;;;;;;;;;;;14.20;62.20;;;;;;4901198;29;20005;-63
2021/03/21 08:32:19;;;;;;;;;;;14.40;61.80;;;;;;4918055;29;20255;-64
2021/03/21 08:34:46;;;;;;;;;;;14.20;61.10;;;;;;4918050;29;19913;-63
2021/03/21 08:37:30;;;;;;;;;;;14.30;61.40;;;;;;4917938;29;19910;-65
2021/03/21 08:40:14;;;;;;;;;;;14.40;61.30;;;;;;4918244;29;20010;-64
2021/03/21 08:42:42;;;;;;;;;;;14.50;61.20;;;;;;4900775;29;19914;-63
2021/03/21 08:45:29;;;;;;;;;;;14.30;61.10;;;;;;4917952;29;19907;-64
2021/03/21 08:47:58;;;;;;;;;;;14.50;61.30;;;;;;4880203;29;20295;-62
2021/03/21 08:50:43;;;;;;;;;;;14.60;61.60;;;;;;4917996;29;19914;-63
2021/03/21 08:53:23;;;;;;;;;;;14.60;61.40;;;;;;4924144;29;19915;-63
2021/03/21 08:55:48;;;;;;;;;;;14.60;61.30;;;;;;4917612;29;19918;-63
2021/03/21 08:58:21;;;;;;;;;;;14.70;61.40;;;;;;4917550;29;19908;-62
2021/03/21 09:00:46;;;;;;;;;;;14.70;61.20;;;;;;4900528;29;19914;-62
2021/03/21 09:03:18;;;;;;;;;;;15.40;61.60;;;;;;4917502;29;19907;-64
2021/03/21 09:05:53;;;;;;;;;;;14.70;61.00;;;;;;4917439;29;19963;-64
2021/03/21 09:08:22;;;;;;;;;;;14.70;61.00;;;;;;4917638;29;19993;-64
2021/03/21 09:10:53;;;;;;;;;;;14.70;60.90;;;;;;4917385;29;19907;-64
2021/03/21 09:13:20;;;;;;;;;;;15.00;60.60;;;;;;4917459;29;19917;-63
2021/03/21 09:15:58;;;;;;;;;;;14.90;60.20;;;;;;4917359;29;19907;-64
2021/03/21 09:18:28;;;;;;;;;;;15.30;59.90;;;;;;4923651;29;20405;-63
2021/03/21 09:21:16;;;;;;;;;;;15.40;59.60;;;;;;4900206;29;20306;-64
2021/03/21 09:23:46;;;;;;;;;;;15.60;59.20;;;;;;4900619;29;19919;-62
2021/03/21 09:26:12;;;;;;;;;;;15.70;58.90;;;;;;4916946;29;19963;-63
2021/03/21 09:28:39;;;;;;;;;;;15.70;58.70;;;;;;4917100;29;19911;-64
2021/03/21 09:31:09;;;;;;;;;;;15.90;58.60;;;;;;4917099;29;19990;-63
2021/03/21 09:33:55;;;;;;;;;;;15.80;58.40;;;;;;4917051;29;20286;-63
2021/03/21 09:36:20;;;;;;;;;;;16.10;58.40;;;;;;4916667;29;19907;-64
2021/03/21 09:38:57;;;;;;;;;;;16.30;58.30;;;;;;4917021;29;20373;-64
2021/03/21 09:41:23;;;;;;;;;;;16.30;58.10;;;;;;4916974;29;19998;-64
2021/03/21 09:43:49;;;;;;;;;;;16.10;57.80;;;;;;4917104;29;20258;-64
2021/03/21 09:46:14;;;;;;;;;;;16.50;57.90;;;;;;4916706;29;20014;-64
2021/03/21 09:48:43;;;;;;;;;;;16.40;57.60;;;;;;4899658;29;19946;-64
2021/03/21 09:51:15;;;;;;;;;;;16.50;57.40;;;;;;4916668;29;19915;-64
2021/03/21 09:53:54;;;;;;;;;;;16.50;57.40;;;;;;4916741;29;19938;-64
2021/03/21 09:56:38;;;;;;;;;;;16.40;57.50;;;;;;4916932;29;20008;-64
2021/03/21 09:59:13;;;;;;;;;;;16.50;57.50;;;;;;4916398;29;19915;-64
2021/03/21 10:01:41;;;;;;;;;;;16.50;57.30;;;;;;4916469;29;20004;-63
2021/03/21 10:04:13;;;;;;;;;;;16.40;57.30;;;;;;4916484;29;20365;-64
2021/03/21 10:06:40;;;;;;;;;;;16.50;57.30;;;;;;4916460;29;19919;-64
2021/03/21 10:09:13;;;;;;;;;;;16.50;57.20;;;;;;4916507;29;19923;-62
2021/03/21 10:11:40;;;;;;;;;;;16.50;57.20;;;;;;4915169;29;20318;-64
2021/03/21 10:14:24;;;;;;;;;;;16.50;57.30;;;;;;4916387;29;19918;-62
2021/03/21 10:16:50;;;;;;;;;;;16.50;58.00;;;;;;4899212;29;19915;-63
2021/03/21 10:19:34;;;;;;;;;;;16.60;58.20;;;;;;4916304;29;19914;-63
2021/03/21 10:22:00;;;;;;;;;;;16.40;57.90;;;;;;4916557;29;19997;-64
2021/03/21 10:24:25;;;;;;;;;;;16.50;57.80;;;;;;4916226;29;19950;-63
2021/03/21 10:27:10;;;;;;;;;;;16.50;57.70;;;;;;4898209;29;19915;-64
2021/03/21 10:29:43;;;;;;;;;;;16.60;57.60;;;;;;4915678;29;20269;-64
2021/03/21 10:32:27;;;;;;;;;;;16.40;57.20;;;;;;4916047;29;19911;-63
2021/03/21 10:34:52;;;;;;;;;;;16.70;57.10;;;;;;4898953;29;20378;-64
2021/03/21 10:37:50;;;;;;;;;;;16.70;56.90;;;;;;4916068;29;19954;-65
2021/03/21 10:40:25;;;;;;;;;;;16.80;56.70;;;;;;4873903;29;19935;-64
2021/03/21 10:42:52;;;;;;;;;;;16.90;56.70;;;;;;4916024;29;19907;-65
2021/03/21 10:45:38;;;;;;;;;;;16.70;56.40;;;;;;4915993;29;19908;-63
2021/03/21 10:48:09;;;;;;;;;;;17.00;56.50;;;;;;4905561;29;20014;-64
2021/03/21 10:50:54;;;;;;;;;;;17.10;56.30;;;;;;4915820;29;19914;-64
2021/03/21 10:53:31;;;;;;;;;;;17.10;56.20;;;;;;4915846;29;19907;-64
2021/03/21 10:55:59;;;;;;;;;;;17.20;56.00;;;;;;4915929;29;19961;-64
2021/03/21 10:58:30;;;;;;;;;;;17.20;55.90;;;;;;4915812;29;19907;-64
2021/03/21 11:01:14;;;;;;;;;;;17.30;55.80;;;;;;4915751;29;19990;-66
2021/03/21 11:03:39;;;;;;;;;;;17.30;55.70;;;;;;4915361;29;19946;-66
2021/03/21 11:06:05;;;;;;;;;;;17.30;55.70;;;;;;4915636;29;19949;-66
2021/03/21 11:08:31;;;;;;;;;;;17.20;55.40;;;;;;4913961;29;20370;-66
2021/03/21 11:10:58;;;;;;;;;;;17.20;55.20;;;;;;4904072;29;19997;-64
2021/03/21 11:13:34;;;;;;;;;;;17.40;55.20;;;;;;4915922;29;19915;-65
2021/03/21 11:16:10;;;;;;;;;;;17.50;55.30;;;;;;4922022;29;20355;-66
2021/03/21 11:18:36;;;;;;;;;;;17.50;55.00;;;;;;4915541;29;19907;-65
2021/03/21 11:21:02;;;;;;;;;;;17.60;55.20;;;;;;4915049;29;19951;-64
2021/03/21 11:23:28;;;;;;;;;;;17.50;55.30;;;;;;4915149;29;19926;-64
2021/03/21 11:25:53;;;;;;;;;;;17.40;55.20;;;;;;4914617;29;19915;-65
2021/03/21 11:28:23;;;;;;;;;;;17.50;55.10;;;;;;4915402;29;19911;-64
2021/03/21 11:30:53;;;;;;;;;;;17.50;54.90;;;;;;4915587;29;19965;-64
2021/03/21 11:33:32;;;;;;;;;;;17.30;54.70;;;;;;4915836;29;19967;-64
2021/03/21 11:36:16;;;;;;;;;;;17.50;54.80;;;;;;4921844;29;19907;-66
2021/03/21 11:38:41;;;;;;;;;;;17.50;54.60;;;;;;4915507;29;19907;-68
2021/03/21 11:41:18;;;;;;;;;;;17.50;54.80;;;;;;4918956;29;19907;-65
2021/03/21 11:43:44;;;;;;;;;;;17.40;54.60;;;;;;4918872;29;20026;-65
2021/03/21 11:46:14;;;;;;;;;;;17.20;54.70;;;;;;4900927;29;19998;-63
2021/03/21 11:48:41;;;;;;;;;;;17.40;54.30;;;;;;4917847;29;19915;-63
2021/03/21 11:51:07;;;;;;;;;;;17.40;54.20;;;;;;4918588;29;19911;-63
2021/03/21 11:53:35;;;;;;;;;;;17.40;54.70;;;;;;4918619;29;19907;-62
2021/03/21 11:56:13;;;;;;;;;;;17.40;54.50;;;;;;4918723;29;20486;-62
2021/03/21 11:58:39;;;;;;;;;;;17.40;54.20;;;;;;4918489;29;19911;-63
2021/03/21 12:01:25;;;;;;;;;;;17.40;54.20;;;;;;4918512;29;19914;-63
2021/03/21 12:03:52;;;;;;;;;;;17.30;54.20;;;;;;4903285;29;19923;-63
2021/03/21 12:06:41;;;;;;;;;;;17.20;54.10;;;;;;4900806;29;19915;-63
2021/03/21 12:09:20;;;;;;;;;;;17.20;54.10;;;;;;4908377;29;19907;-63
2021/03/21 12:11:47;;;;;;;;;;;17.20;54.20;;;;;;4918391;29;19915;-62
2021/03/21 12:14:29;;;;;;;;;;;17.00;54.20;;;;;;4918596;29;19999;-64
2021/03/21 12:16:54;;;;;;;;;;;17.10;54.20;;;;;;4918195;29;19911;-63
2021/03/21 12:19:23;;;;;;;;;;;17.10;54.40;;;;;;4918487;29;19907;-63
2021/03/21 12:21:49;;;;;;;;;;;17.10;54.30;;;;;;4918265;29;20299;-63
2021/03/21 12:24:20;;;;;;;;;;;17.10;54.30;;;;;;4917942;29;20386;-63
2021/03/21 12:26:53;;;;;;;;;;;17.10;54.20;;;;;;4918059;29;20263;-63
2021/03/21 12:29:24;;;;;;;;;;;17.10;54.10;;;;;;4918355;29;20315;-63
2021/03/21 12:31:54;;;;;;;;;;;17.10;54.10;;;;;;4917928;29;20385;-62
2021/03/21 12:34:21;;;;;;;;;;;17.00;54.00;;;;;;4917814;29;19907;-61
2021/03/21 12:36:58;;;;;;;;;;;17.00;54.00;;;;;;4917904;29;19987;-62
2021/03/21 12:39:30;;;;;;;;;;;17.00;54.00;;;;;;4917883;29;19963;-62
2021/03/21 12:41:56;;;;;;;;;;;17.00;53.50;;;;;;4917530;29;19907;-62
2021/03/21 12:44:26;;;;;;;;;;;16.90;54.00;;;;;;4917887;29;19914;-65
2021/03/21 12:47:00;;;;;;;;;;;17.00;53.90;;;;;;4917721;29;19916;-63
2021/03/21 12:49:38;;;;;;;;;;;17.00;54.10;;;;;;4918027;29;19907;-64
2021/03/21 12:52:05;;;;;;;;;;;17.00;54.10;;;;;;4917323;29;20118;-64
2021/03/21 12:54:31;;;;;;;;;;;17.10;54.10;;;;;;4917925;29;19907;-66
2021/03/21 12:56:56;;;;;;;;;;;16.90;54.00;;;;;;4900696;29;19914;-63
2021/03/21 12:59:23;;;;;;;;;;;16.90;54.30;;;;;;4917612;29;19907;-64
2021/03/21 13:01:49;;;;;;;;;;;17.10;54.30;;;;;;4917446;29;20378;-64
2021/03/21 13:04:14;;;;;;;;;;;17.70;54.40;;;;;;4917469;29;19911;-63
2021/03/21 13:06:40;;;;;;;;;;;17.10;54.20;;;;;;4917412;29;19923;-66
2021/03/21 13:09:06;;;;;;;;;;;16.90;54.30;;;;;;4917379;29;19907;-66
2021/03/21 13:11:32;;;;;;;;;;;17.10;54.50;;;;;;4917374;29;19907;-66
2021/03/21 13:13:57;;;;;;;;;;;17.00;54.10;;;;;;4916034;29;19911;-64
2021/03/21 13:16:23;;;;;;;;;;;17.10;54.10;;;;;;4915911;29;20007;-63
2021/03/21 13:18:49;;;;;;;;;;;17.00;53.80;;;;;;4917250;29;19959;-65
2021/03/21 13:21:14;;;;;;;;;;;17.10;53.80;;;;;;4917366;29;19907;-66
2021/03/21 13:23:40;;;;;;;;;;;17.30;53.60;;;;;;4917744;29;19926;-65
2021/03/21 13:26:05;;;;;;;;;;;17.20;53.30;;;;;;4917369;29;19915;-64
2021/03/21 13:28:31;;;;;;;;;;;17.30;53.20;;;;;;4917410;29;19949;-65
2021/03/21 13:30:58;;;;;;;;;;;17.10;53.20;;;;;;4917314;29;19907;-64
2021/03/21 13:33:28;;;;;;;;;;;17.20;53.50;;;;;;4917306;29;20427;-65
2021/03/21 13:35:55;;;;;;;;;;;17.40;53.40;;;;;;4917178;29;19918;-64
2021/03/21 13:38:22;;;;;;;;;;;17.20;54.20;;;;;;4917170;29;19914;-63
2021/03/21 13:40:47;;;;;;;;;;;17.40;53.40;;;;;;4917069;29;19929;-63
2021/03/21 13:43:13;;;;;;;;;;;17.30;52.90;;;;;;4916981;29;20054;-64
2021/03/21 13:45:40;;;;;;;;;;;17.30;52.80;;;;;;4916781;29;19955;-62
2021/03/21 13:48:05;;;;;;;;;;;17.10;52.60;;;;;;4916905;29;19915;-62
2021/03/21 13:50:31;;;;;;;;;;;17.20;52.60;;;;;;4916866;29;20001;-62
2021/03/21 13:52:57;;;;;;;;;;;17.10;52.70;;;;;;4917053;29;19946;-62
2021/03/21 13:55:26;;;;;;;;;;;17.10;52.60;;;;;;4917019;29;19987;-66
2021/03/21 13:57:52;;;;;;;;;;;16.80;53.00;;;;;;4916895;29;20281;-63
2021/03/21 14:00:19;;;;;;;;;;;16.80;52.20;;;;;;4916848;29;19994;-68
2021/03/21 14:02:44;;;;;;;;;;;16.90;51.60;;;;;;4915979;29;19922;-62
2021/03/21 14:05:10;;;;;;;;;;;16.80;51.30;;;;;;4916760;29;19907;-64
2021/03/21 14:07:36;;;;;;;;;;;16.80;52.50;;;;;;4916641;29;19970;-62
2021/03/21 14:10:02;;;;;;;;;;;16.70;52.70;;;;;;4916420;29;20282;-62
2021/03/21 14:12:27;;;;;;;;;;;16.70;53.30;;;;;;4916398;29;19990;-63
2021/03/21 14:14:53;;;;;;;;;;;16.60;53.90;;;;;;4916717;29;19954;-62
2021/03/21 14:17:18;;;;;;;;;;;16.70;54.80;;;;;;4916394;29;19907;-62
2021/03/21 14:19:44;;;;;;;;;;;16.70;55.00;;;;;;4916584;29;19918;-62
2021/03/21 14:22:09;;;;;;;;;;;16.70;55.20;;;;;;4916647;29;20369;-63
2021/03/21 14:24:35;;;;;;;;;;;16.50;55.60;;;;;;4915493;29;20378;-62
2021/03/21 14:27:01;;;;;;;;;;;16.60;56.20;;;;;;4915502;29;19914;-63
2021/03/21 14:29:27;;;;;;;;;;;16.60;56.40;;;;;;4916488;29;19914;-66
2021/03/21 14:31:52;;;;;;;;;;;16.60;56.80;;;;;;4916337;29;20327;-66
2021/03/21 14:34:19;;;;;;;;;;;16.60;57.20;;;;;;4916099;29;19914;-65
2021/03/21 14:36:44;;;;;;;;;;;16.60;57.50;;;;;;4916260;29;20355;-67
2021/03/21 14:39:10;;;;;;;;;;;16.50;57.60;;;;;;4916467;29;19998;-66
2021/03/21 14:41:35;;;;;;;;;;;16.70;57.80;;;;;;4916098;29;19930;-65